createdAt,value
2016-12-23T00:00:11.206Z,21.36
2016-12-23T00:00:36.777Z,21.32
2016-12-23T00:01:02.331Z,21.36
2016-12-23T00:01:27.894Z,21.34
2016-12-23T00:01:53.452Z,21.36
2016-12-23T00:02:19.071Z,21.32
2016-12-23T00:02:44.646Z,21.36
2016-12-23T00:03:10.230Z,21.32
2016-12-23T00:03:35.907Z,21.34
2016-12-23T00:04:01.516Z,21.36
2016-12-23T00:04:27.106Z,21.38
2016-12-23T00:04:52.678Z,21.34
2016-12-23T00:05:18.326Z,21.36
2016-12-23T00:05:43.907Z,21.34
2016-12-23T00:06:09.493Z,21.36
2016-12-23T00:06:35.099Z,21.34
2016-12-23T00:07:00.652Z,21.38
2016-12-23T00:07:26.240Z,21.36
2016-12-23T00:07:51.876Z,21.3
2016-12-23T00:08:17.416Z,21.36
2016-12-23T00:08:42.976Z,21.36
2016-12-23T00:09:08.545Z,21.34
2016-12-23T00:09:34.100Z,21.36
2016-12-23T00:09:59.658Z,21.32
2016-12-23T00:10:25.227Z,21.34
2016-12-23T00:10:50.804Z,21.32
2016-12-23T00:11:16.377Z,21.27
2016-12-23T00:11:41.942Z,21.39
2016-12-23T00:12:07.628Z,21.29
2016-12-23T00:12:33.203Z,21.24
2016-12-23T00:12:58.761Z,21.35
2016-12-23T00:13:24.345Z,21.29
2016-12-23T00:13:49.915Z,21.36
2016-12-23T00:14:15.476Z,21.3
2016-12-23T00:14:41.046Z,21.29
2016-12-23T00:15:06.600Z,21.35
2016-12-23T00:15:32.214Z,21.34
2016-12-23T00:15:57.790Z,21.29
2016-12-23T00:16:23.356Z,21.34
2016-12-23T00:16:48.929Z,21.32
2016-12-23T00:17:14.568Z,21.27
2016-12-23T00:17:40.142Z,21.35
2016-12-23T00:18:05.707Z,21.29
2016-12-23T00:18:31.279Z,21.32
2016-12-23T00:18:56.866Z,21.29
2016-12-23T00:19:22.429Z,21.29
2016-12-23T00:19:48.002Z,21.32
2016-12-23T00:20:13.550Z,21.29
2016-12-23T00:20:39.240Z,21.32
2016-12-23T00:21:04.800Z,21.3
2016-12-23T00:21:30.375Z,21.34
2016-12-23T00:21:55.952Z,21.24
2016-12-23T00:22:21.664Z,21.35
2016-12-23T00:22:47.219Z,21.3
2016-12-23T00:23:12.786Z,21.32
2016-12-23T00:23:38.345Z,21.27
2016-12-23T00:24:26.769Z,21.27
2016-12-23T00:24:52.381Z,21.3
2016-12-23T00:25:17.939Z,21.3
2016-12-23T00:25:43.578Z,21.29
2016-12-23T00:26:09.143Z,21.3
2016-12-23T00:26:34.698Z,21.29
2016-12-23T00:27:00.312Z,21.26
2016-12-23T00:27:25.886Z,21.36
2016-12-23T00:27:51.459Z,21.35
2016-12-23T00:28:17.109Z,21.32
2016-12-23T00:28:42.670Z,21.29
2016-12-23T00:29:08.230Z,21.3
2016-12-23T00:29:33.805Z,21.27
2016-12-23T00:29:59.392Z,21.27
2016-12-23T00:30:24.948Z,21.35
2016-12-23T00:30:50.492Z,21.27
2016-12-23T00:31:16.059Z,21.32
2016-12-23T00:31:41.631Z,21.3
2016-12-23T00:32:07.335Z,21.35
2016-12-23T00:32:32.909Z,21.3
2016-12-23T00:32:58.474Z,21.34
2016-12-23T00:33:24.048Z,21.36
2016-12-23T00:33:49.605Z,21.3
2016-12-23T00:34:15.161Z,21.36
2016-12-23T00:34:40.723Z,21.29
2016-12-23T00:35:06.290Z,21.24
2016-12-23T00:35:31.860Z,21.29
2016-12-23T00:35:57.416Z,21.34
2016-12-23T00:36:22.991Z,21.36
2016-12-23T00:36:48.548Z,21.29
2016-12-23T00:37:14.146Z,21.34
2016-12-23T00:37:39.706Z,21.3
2016-12-23T00:38:05.268Z,21.35
2016-12-23T00:38:30.823Z,21.3
2016-12-23T00:38:56.386Z,21.3
2016-12-23T00:39:22.059Z,21.27
2016-12-23T00:39:47.671Z,21.34
2016-12-23T00:40:13.205Z,21.26
2016-12-23T00:40:38.748Z,21.27
2016-12-23T00:41:04.312Z,21.3
2016-12-23T00:41:29.890Z,21.26
2016-12-23T00:41:55.467Z,21.24
2016-12-23T00:42:21.037Z,21.27
2016-12-23T00:42:46.619Z,21.32
2016-12-23T00:43:12.222Z,21.27
2016-12-23T00:43:37.784Z,21.29
2016-12-23T00:44:03.359Z,21.3
2016-12-23T00:44:28.912Z,21.29
2016-12-23T00:44:54.482Z,21.26
2016-12-23T00:45:20.044Z,21.26
2016-12-23T00:45:45.613Z,21.26
2016-12-23T00:46:11.176Z,21.3
2016-12-23T00:46:36.725Z,21.3
2016-12-23T00:47:40.528Z,21.3
2016-12-23T00:48:06.098Z,21.24
2016-12-23T00:48:31.657Z,21.23
2016-12-23T00:48:57.232Z,21.26
2016-12-23T00:49:22.796Z,21.24
2016-12-23T00:49:48.347Z,21.29
2016-12-23T00:50:13.942Z,21.23
2016-12-23T00:50:39.495Z,21.32
2016-12-23T00:51:05.082Z,21.26
2016-12-23T00:51:30.642Z,21.23
2016-12-23T00:51:56.229Z,21.29
2016-12-23T00:52:21.839Z,21.26
2016-12-23T00:52:47.409Z,21.21
2016-12-23T00:53:12.970Z,21.3
2016-12-23T00:53:38.528Z,21.26
2016-12-23T00:54:04.245Z,21.27
2016-12-23T00:54:29.819Z,21.27
2016-12-23T00:54:55.381Z,21.24
2016-12-23T00:55:20.937Z,21.21
2016-12-23T00:55:46.561Z,21.24
2016-12-23T00:56:12.124Z,21.26
2016-12-23T00:56:37.689Z,21.29
2016-12-23T00:57:03.373Z,21.29
2016-12-23T00:57:28.929Z,21.24
2016-12-23T00:57:54.503Z,21.27
2016-12-23T00:58:20.115Z,21.24
2016-12-23T00:58:45.784Z,21.23
2016-12-23T00:59:11.340Z,21.23
2016-12-23T00:59:36.986Z,21.26
2016-12-23T01:00:02.544Z,21.24
2016-12-23T01:00:28.127Z,21.23
2016-12-23T01:00:53.671Z,21.26
2016-12-23T01:01:19.211Z,21.26
2016-12-23T01:01:44.789Z,21.26
2016-12-23T01:02:10.407Z,21.29
2016-12-23T01:02:35.964Z,21.24
2016-12-23T01:03:01.529Z,21.24
2016-12-23T01:03:27.254Z,21.26
2016-12-23T01:03:52.832Z,21.24
2016-12-23T01:04:18.401Z,21.23
2016-12-23T01:04:44.012Z,21.19
2016-12-23T01:05:09.654Z,21.26
2016-12-23T01:05:35.234Z,21.23
2016-12-23T01:06:00.790Z,21.21
2016-12-23T01:06:26.431Z,21.21
2016-12-23T01:06:52.025Z,21.19
2016-12-23T01:07:17.594Z,21.26
2016-12-23T01:07:43.226Z,21.24
2016-12-23T01:08:08.769Z,21.24
2016-12-23T01:08:34.337Z,21.21
2016-12-23T01:08:59.897Z,21.24
2016-12-23T01:09:25.529Z,21.24
2016-12-23T01:09:51.075Z,21.21
2016-12-23T01:10:16.636Z,21.19
2016-12-23T01:10:42.201Z,21.24
2016-12-23T01:11:07.766Z,21.19
2016-12-23T01:11:33.377Z,21.2
2016-12-23T01:11:58.940Z,21.19
2016-12-23T01:12:24.497Z,21.21
2016-12-23T01:13:18.039Z,21.3
2016-12-23T01:13:43.609Z,21.2
2016-12-23T01:14:09.179Z,21.14
2016-12-23T01:14:34.747Z,21.19
2016-12-23T01:15:00.398Z,21.26
2016-12-23T01:15:25.982Z,21.23
2016-12-23T01:15:51.534Z,21.32
2016-12-23T01:16:17.094Z,21.26
2016-12-23T01:16:42.679Z,21.23
2016-12-23T01:17:08.258Z,21.21
2016-12-23T01:17:33.842Z,21.21
2016-12-23T01:17:59.546Z,21.21
2016-12-23T01:18:25.118Z,21.26
2016-12-23T01:18:50.769Z,21.17
2016-12-23T01:19:16.399Z,21.17
2016-12-23T01:19:41.972Z,21.29
2016-12-23T01:20:07.538Z,21.26
2016-12-23T01:20:33.189Z,21.16
2016-12-23T01:20:58.758Z,21.27
2016-12-23T01:21:24.321Z,21.21
2016-12-23T01:21:50.017Z,21.19
2016-12-23T01:22:15.660Z,21.17
2016-12-23T01:22:41.226Z,21.13
2016-12-23T01:23:06.799Z,21.17
2016-12-23T01:23:32.344Z,21.14
2016-12-23T01:23:57.937Z,21.13
2016-12-23T01:24:23.588Z,21.21
2016-12-23T01:24:49.156Z,21.26
2016-12-23T01:25:14.809Z,21.11
2016-12-23T01:25:40.356Z,21.14
2016-12-23T01:26:06.014Z,21.16
2016-12-23T01:26:31.599Z,21.21
2016-12-23T01:26:57.162Z,21.26
2016-12-23T01:27:22.793Z,21.29
2016-12-23T01:27:48.423Z,21.26
2016-12-23T01:28:13.991Z,21.14
2016-12-23T01:28:39.558Z,21.16
2016-12-23T01:29:05.116Z,21.21
2016-12-23T01:29:30.678Z,21.14
2016-12-23T01:29:56.264Z,21.2
2016-12-23T01:30:21.811Z,21.21
2016-12-23T01:30:47.371Z,21.16
2016-12-23T01:31:13.017Z,21.16
2016-12-23T01:31:38.591Z,21.19
2016-12-23T01:32:04.170Z,21.14
2016-12-23T01:32:29.731Z,21.23
2016-12-23T01:32:55.328Z,21.17
2016-12-23T01:33:20.888Z,21.17
2016-12-23T01:33:46.462Z,21.23
2016-12-23T01:34:12.030Z,21.23
2016-12-23T01:34:37.590Z,21.11
2016-12-23T01:35:03.158Z,21.16
2016-12-23T01:35:28.822Z,21.2
2016-12-23T01:35:54.382Z,21.29
2016-12-23T01:36:19.935Z,21.19
2016-12-23T01:36:45.507Z,21.21
2016-12-23T01:37:11.062Z,21.16
2016-12-23T01:37:36.620Z,21.2
2016-12-23T01:38:02.188Z,21.11
2016-12-23T01:38:27.742Z,21.19
2016-12-23T01:38:53.308Z,21.17
2016-12-23T01:39:18.881Z,21.16
2016-12-23T01:39:44.451Z,21.16
2016-12-23T01:40:10.147Z,21.16
2016-12-23T01:40:35.718Z,21.21
2016-12-23T01:41:01.287Z,21.21
2016-12-23T01:41:26.851Z,21.21
2016-12-23T01:41:52.410Z,21.24
2016-12-23T01:42:17.990Z,21.24
2016-12-23T01:42:43.558Z,21.14
2016-12-23T01:43:09.132Z,21.2
2016-12-23T01:43:34.697Z,21.23
2016-12-23T01:44:00.256Z,21.23
2016-12-23T01:44:25.833Z,21.24
2016-12-23T01:44:51.398Z,21.21
2016-12-23T01:45:17.080Z,21.16
2016-12-23T01:45:42.624Z,21.16
2016-12-23T01:46:08.195Z,21.24
2016-12-23T01:46:33.788Z,21.23
2016-12-23T01:46:59.366Z,21.19
2016-12-23T01:47:24.916Z,21.17
2016-12-23T01:47:50.496Z,21.17
2016-12-23T01:48:16.095Z,21.2
2016-12-23T01:48:41.665Z,21.21
2016-12-23T01:49:07.311Z,21.14
2016-12-23T01:49:32.870Z,21.19
2016-12-23T01:49:58.452Z,21.16
2016-12-23T01:50:24.108Z,21.23
2016-12-23T01:50:49.725Z,21.2
2016-12-23T01:51:15.299Z,21.13
2016-12-23T01:51:40.871Z,21.19
2016-12-23T01:52:06.500Z,21.21
2016-12-23T01:52:32.042Z,21.14
2016-12-23T01:52:57.731Z,21.19
2016-12-23T01:53:23.288Z,21.23
2016-12-23T01:53:48.857Z,21.13
2016-12-23T01:54:14.420Z,21.16
2016-12-23T01:54:39.972Z,21.13
2016-12-23T01:55:05.707Z,21.19
2016-12-23T01:55:31.277Z,21.16
2016-12-23T01:55:56.832Z,21.21
2016-12-23T01:56:22.384Z,21.16
2016-12-23T01:56:47.958Z,21.19
2016-12-23T01:57:13.522Z,21.2
2016-12-23T01:57:39.091Z,21.2
2016-12-23T01:58:04.665Z,21.13
2016-12-23T01:58:30.344Z,21.14
2016-12-23T01:58:55.889Z,21.16
2016-12-23T01:59:21.464Z,21.14
2016-12-23T02:00:09.865Z,21.13
2016-12-23T02:00:35.450Z,21.19
2016-12-23T02:01:00.999Z,21.21
2016-12-23T02:01:26.578Z,21.21
2016-12-23T02:01:52.128Z,21.19
2016-12-23T02:02:17.701Z,21.14
2016-12-23T02:02:43.273Z,21.14
2016-12-23T02:03:08.832Z,21.14
2016-12-23T02:03:34.384Z,21.16
2016-12-23T02:03:59.954Z,21.24
2016-12-23T02:04:25.584Z,21.17
2016-12-23T02:04:51.141Z,21.13
2016-12-23T02:05:16.716Z,21.16
2016-12-23T02:05:42.386Z,21.16
2016-12-23T02:06:07.980Z,21.16
2016-12-23T02:06:33.571Z,21.14
2016-12-23T02:06:59.178Z,21.17
2016-12-23T02:07:24.731Z,21.16
2016-12-23T02:07:50.309Z,21.17
2016-12-23T02:08:15.967Z,21.14
2016-12-23T02:08:41.538Z,21.19
2016-12-23T02:09:07.091Z,21.21
2016-12-23T02:09:32.655Z,21.17
2016-12-23T02:09:58.242Z,21.13
2016-12-23T02:10:23.784Z,21.14
2016-12-23T02:10:49.339Z,21.05
2016-12-23T02:11:14.887Z,21.23
2016-12-23T02:11:40.461Z,21.13
2016-12-23T02:12:06.130Z,21.16
2016-12-23T02:12:31.689Z,21.17
2016-12-23T02:12:57.278Z,21.13
2016-12-23T02:13:22.949Z,21.17
2016-12-23T02:13:48.616Z,21.13
2016-12-23T02:14:14.182Z,21.13
2016-12-23T02:14:39.760Z,21.13
2016-12-23T02:15:05.384Z,21.09
2016-12-23T02:15:30.962Z,21.09
2016-12-23T02:15:56.526Z,21.08
2016-12-23T02:16:22.089Z,21.17
2016-12-23T02:16:47.696Z,21.13
2016-12-23T02:17:13.270Z,21.09
2016-12-23T02:17:38.827Z,21.06
2016-12-23T02:18:04.387Z,21.05
2016-12-23T02:18:29.974Z,21.16
2016-12-23T02:18:55.588Z,21.06
2016-12-23T02:19:21.140Z,21.14
2016-12-23T02:19:46.725Z,21.09
2016-12-23T02:20:12.379Z,21.09
2016-12-23T02:20:37.931Z,21.14
2016-12-23T02:21:03.481Z,21.06
2016-12-23T02:21:29.038Z,21.14
2016-12-23T02:21:54.700Z,21.06
2016-12-23T02:22:20.268Z,21.13
2016-12-23T02:22:45.851Z,21.14
2016-12-23T02:23:11.486Z,21.14
2016-12-23T02:23:37.053Z,21.13
2016-12-23T02:24:02.630Z,21.14
2016-12-23T02:24:28.208Z,21.06
2016-12-23T02:25:26.854Z,21.08
2016-12-23T02:25:52.427Z,21.08
2016-12-23T02:26:17.982Z,21.14
2016-12-23T02:26:43.688Z,21.08
2016-12-23T02:27:09.230Z,21.09
2016-12-23T02:27:34.792Z,21.13
2016-12-23T02:28:00.347Z,21.11
2016-12-23T02:28:25.917Z,21.13
2016-12-23T02:29:34.668Z,21.08
2016-12-23T02:30:43.462Z,21.16
2016-12-23T02:31:09.027Z,21.05
2016-12-23T02:31:34.596Z,21.14
2016-12-23T02:32:00.159Z,21.08
2016-12-23T02:32:25.787Z,21.11
2016-12-23T02:32:51.350Z,21.11
2016-12-23T02:33:16.939Z,21.06
2016-12-23T02:33:42.516Z,21.13
2016-12-23T02:34:08.054Z,21.11
2016-12-23T02:34:33.608Z,21.16
2016-12-23T02:34:59.179Z,21.09
2016-12-23T02:35:24.740Z,21.14
2016-12-23T02:35:50.310Z,21.14
2016-12-23T02:36:15.864Z,21.16
2016-12-23T02:36:41.468Z,21.08
2016-12-23T02:37:07.036Z,21.09
2016-12-23T02:37:32.601Z,21.13
2016-12-23T02:37:58.154Z,21.13
2016-12-23T02:38:23.707Z,21.09
2016-12-23T02:38:49.308Z,21.08
2016-12-23T02:39:14.873Z,21.08
2016-12-23T02:39:40.437Z,21.11
2016-12-23T02:40:06.023Z,21.14
2016-12-23T02:41:04.698Z,21.14
2016-12-23T02:41:30.244Z,21.02
2016-12-23T02:41:55.817Z,21.13
2016-12-23T02:42:21.401Z,21.11
2016-12-23T02:42:47.019Z,21.13
2016-12-23T02:43:12.577Z,21.08
2016-12-23T02:43:38.185Z,21.08
2016-12-23T02:44:03.736Z,21.06
2016-12-23T02:44:29.292Z,21.13
2016-12-23T02:44:54.869Z,21.05
2016-12-23T02:45:20.489Z,21.16
2016-12-23T02:46:19.079Z,21.05
2016-12-23T02:46:44.641Z,21.13
2016-12-23T02:47:10.201Z,21.02
2016-12-23T02:47:35.766Z,21.04
2016-12-23T02:48:01.318Z,21.06
2016-12-23T02:48:26.888Z,21.11
2016-12-23T02:48:52.445Z,21.06
2016-12-23T02:49:18.121Z,21.05
2016-12-23T02:49:43.705Z,21.06
2016-12-23T02:50:09.276Z,21.11
2016-12-23T02:50:34.837Z,21.11
2016-12-23T02:51:00.454Z,21.09
2016-12-23T02:51:26.001Z,21.05
2016-12-23T02:51:51.582Z,21.05
2016-12-23T02:52:17.150Z,21.16
2016-12-23T02:52:42.721Z,21.05
2016-12-23T02:53:08.263Z,21.05
2016-12-23T02:53:33.849Z,21.13
2016-12-23T02:53:59.398Z,21.06
2016-12-23T02:54:47.799Z,21.09
2016-12-23T02:55:13.385Z,21.06
2016-12-23T02:55:38.937Z,21.05
2016-12-23T02:56:04.495Z,21.09
2016-12-23T02:56:30.173Z,21.14
2016-12-23T02:56:55.727Z,21.05
2016-12-23T02:57:21.299Z,21.01
2016-12-23T02:57:46.854Z,21.04
2016-12-23T02:58:40.431Z,21.09
2016-12-23T02:59:06.004Z,21.05
2016-12-23T02:59:31.622Z,21.05
2016-12-23T02:59:57.196Z,21.05
2016-12-23T03:00:22.777Z,21.05
2016-12-23T03:00:48.345Z,21.02
2016-12-23T03:01:13.893Z,21.05
2016-12-23T03:01:39.444Z,21.01
2016-12-23T03:02:05.011Z,21.08
2016-12-23T03:02:30.569Z,21.11
2016-12-23T03:02:56.158Z,21.08
2016-12-23T03:03:21.771Z,21.08
2016-12-23T03:03:47.359Z,21.08
2016-12-23T03:04:40.858Z,21.06
2016-12-23T03:05:06.472Z,21.11
2016-12-23T03:05:32.012Z,21.04
2016-12-23T03:05:57.558Z,21.09
2016-12-23T03:06:23.112Z,21.13
2016-12-23T03:06:48.660Z,21.08
2016-12-23T03:07:14.309Z,21.02
2016-12-23T03:07:39.859Z,21.02
2016-12-23T03:08:05.430Z,21.04
2016-12-23T03:08:30.980Z,21.09
2016-12-23T03:08:56.547Z,21.09
2016-12-23T03:09:22.110Z,21.04
2016-12-23T03:09:47.660Z,21.13
2016-12-23T03:10:13.225Z,21.02
2016-12-23T03:10:38.908Z,21.06
2016-12-23T03:11:04.458Z,21.08
2016-12-23T03:11:30.027Z,21.09
2016-12-23T03:11:55.575Z,21.11
2016-12-23T03:12:21.173Z,21.09
2016-12-23T03:12:46.728Z,21.09
2016-12-23T03:13:12.329Z,21.06
2016-12-23T03:13:37.898Z,21.14
2016-12-23T03:14:03.468Z,21.09
2016-12-23T03:14:29.038Z,21.09
2016-12-23T03:14:54.588Z,21.13
2016-12-23T03:15:20.158Z,21.08
2016-12-23T03:15:45.709Z,21.01
2016-12-23T03:16:11.278Z,21.09
2016-12-23T03:16:36.841Z,21.09
2016-12-23T03:17:02.456Z,21.09
2016-12-23T03:17:28.015Z,21.08
2016-12-23T03:17:53.578Z,21.04
2016-12-23T03:18:19.156Z,21.09
2016-12-23T03:18:44.815Z,21.08
2016-12-23T03:19:10.385Z,21.11
2016-12-23T03:19:35.990Z,21.09
2016-12-23T03:20:01.695Z,21.11
2016-12-23T03:20:27.256Z,21.11
2016-12-23T03:20:52.817Z,21.13
2016-12-23T03:21:18.534Z,21.08
2016-12-23T03:21:44.106Z,21.04
2016-12-23T03:22:09.668Z,21.09
2016-12-23T03:22:35.251Z,21.04
2016-12-23T03:23:00.878Z,21.02
2016-12-23T03:23:26.444Z,21.08
2016-12-23T03:23:52.008Z,21.06
2016-12-23T03:24:17.590Z,21.06
2016-12-23T03:24:43.148Z,21.11
2016-12-23T03:25:08.799Z,21.09
2016-12-23T03:25:34.359Z,21.02
2016-12-23T03:25:59.932Z,20.96
2016-12-23T03:26:25.499Z,20.99
2016-12-23T03:26:51.064Z,21.02
2016-12-23T03:27:16.617Z,21.06
2016-12-23T03:27:42.229Z,21.09
2016-12-23T03:28:07.845Z,21.04
2016-12-23T03:28:33.408Z,21.08
2016-12-23T03:28:59.072Z,21.08
2016-12-23T03:29:24.638Z,21.08
2016-12-23T03:29:50.209Z,21.11
2016-12-23T03:30:15.838Z,21.05
2016-12-23T03:30:41.395Z,21.06
2016-12-23T03:31:06.950Z,20.98
2016-12-23T03:31:32.513Z,21.08
2016-12-23T03:31:58.228Z,21.06
2016-12-23T03:32:23.779Z,21.05
2016-12-23T03:32:49.348Z,20.99
2016-12-23T03:33:14.966Z,20.99
2016-12-23T03:33:40.554Z,21.04
2016-12-23T03:34:06.118Z,21.11
2016-12-23T03:34:31.681Z,21.05
2016-12-23T03:34:57.246Z,21.09
2016-12-23T03:35:22.822Z,21.01
2016-12-23T03:35:48.499Z,20.91
2016-12-23T03:36:36.841Z,21.08
2016-12-23T03:37:02.432Z,21.01
2016-12-23T03:37:28.006Z,20.99
2016-12-23T03:37:53.548Z,20.99
2016-12-23T03:38:19.105Z,21.01
2016-12-23T03:38:44.671Z,20.98
2016-12-23T03:39:10.224Z,20.98
2016-12-23T03:40:19.010Z,21.04
2016-12-23T03:40:44.576Z,21.04
2016-12-23T03:41:10.226Z,21.06
2016-12-23T03:41:35.744Z,20.99
2016-12-23T03:42:01.307Z,21.04
2016-12-23T03:42:26.876Z,21.01
2016-12-23T03:42:52.443Z,20.99
2016-12-23T03:43:18.027Z,21.01
2016-12-23T03:43:43.595Z,21.02
2016-12-23T03:44:09.160Z,21.01
2016-12-23T03:44:34.733Z,20.99
2016-12-23T03:45:00.384Z,20.96
2016-12-23T03:45:25.968Z,20.99
2016-12-23T03:45:51.542Z,21.04
2016-12-23T03:46:17.203Z,21.01
2016-12-23T03:46:42.769Z,20.99
2016-12-23T03:47:08.323Z,20.99
2016-12-23T03:47:33.946Z,21.02
2016-12-23T03:47:59.488Z,21.04
2016-12-23T03:48:25.054Z,21.06
2016-12-23T03:48:50.613Z,20.98
2016-12-23T03:49:16.197Z,20.96
2016-12-23T03:49:41.773Z,21.04
2016-12-23T03:50:07.327Z,20.95
2016-12-23T03:50:32.984Z,20.96
2016-12-23T03:50:58.554Z,20.91
2016-12-23T03:51:24.115Z,21.02
2016-12-23T03:51:49.816Z,21.04
2016-12-23T03:52:15.373Z,21.01
2016-12-23T03:52:41.054Z,21.04
2016-12-23T03:53:06.645Z,20.99
2016-12-23T03:53:32.217Z,21.04
2016-12-23T03:53:57.778Z,20.98
2016-12-23T03:54:23.403Z,21.04
2016-12-23T03:54:48.972Z,20.98
2016-12-23T03:55:14.533Z,20.99
2016-12-23T03:55:40.085Z,21.01
2016-12-23T03:56:05.627Z,21.01
2016-12-23T03:56:31.244Z,21.01
2016-12-23T03:56:56.798Z,21.04
2016-12-23T03:57:22.363Z,20.96
2016-12-23T03:57:48.046Z,21.01
2016-12-23T03:58:13.623Z,20.96
2016-12-23T03:58:39.162Z,21.01
2016-12-23T03:59:04.756Z,21.01
2016-12-23T03:59:30.446Z,21.01
2016-12-23T03:59:56.008Z,20.98
2016-12-23T04:00:21.592Z,21.02
2016-12-23T04:00:47.141Z,20.99
2016-12-23T04:01:12.797Z,21.04
2016-12-23T04:01:38.360Z,21.05
2016-12-23T04:02:04.033Z,21.02
2016-12-23T04:02:29.588Z,20.99
2016-12-23T04:02:55.144Z,21.01
2016-12-23T04:03:20.733Z,20.99
2016-12-23T04:03:46.367Z,20.99
2016-12-23T04:04:11.931Z,20.87
2016-12-23T04:04:37.506Z,20.95
2016-12-23T04:05:03.093Z,20.98
2016-12-23T04:05:28.783Z,20.99
2016-12-23T04:05:54.360Z,20.95
2016-12-23T04:06:20.015Z,20.98
2016-12-23T04:06:45.598Z,20.95
2016-12-23T04:07:11.165Z,21.04
2016-12-23T04:07:36.732Z,20.99
2016-12-23T04:08:02.435Z,20.91
2016-12-23T04:08:28.035Z,20.98
2016-12-23T04:08:53.587Z,21.01
2016-12-23T04:09:19.264Z,21.02
2016-12-23T04:09:44.802Z,20.89
2016-12-23T04:10:10.389Z,21.04
2016-12-23T04:10:36.063Z,20.91
2016-12-23T04:11:01.663Z,20.87
2016-12-23T04:11:27.218Z,21.04
2016-12-23T04:11:52.793Z,21.06
2016-12-23T04:12:18.331Z,20.89
2016-12-23T04:12:43.928Z,20.93
2016-12-23T04:13:09.483Z,21.02
2016-12-23T04:13:35.059Z,21.01
2016-12-23T04:14:00.625Z,20.96
2016-12-23T04:14:26.180Z,20.98
2016-12-23T04:14:51.810Z,20.98
2016-12-23T04:15:17.370Z,20.89
2016-12-23T04:15:43.018Z,20.89
2016-12-23T04:16:08.645Z,20.99
2016-12-23T04:16:34.227Z,20.89
2016-12-23T04:16:59.838Z,20.96
2016-12-23T04:17:25.448Z,20.89
2016-12-23T04:17:51.008Z,20.93
2016-12-23T04:18:16.589Z,20.99
2016-12-23T04:18:42.247Z,21.06
2016-12-23T04:19:07.811Z,21.05
2016-12-23T04:19:33.385Z,20.96
2016-12-23T04:19:58.955Z,21.01
2016-12-23T04:20:24.591Z,20.99
2016-12-23T04:20:50.139Z,21.05
2016-12-23T04:21:15.738Z,21.11
2016-12-23T04:21:41.309Z,20.95
2016-12-23T04:22:06.870Z,21.02
2016-12-23T04:22:32.445Z,21.09
2016-12-23T04:22:58.018Z,21.13
2016-12-23T04:23:23.585Z,21.11
2016-12-23T04:23:49.136Z,21.11
2016-12-23T04:24:14.713Z,21.06
2016-12-23T04:24:40.272Z,21.11
2016-12-23T04:25:05.821Z,21.04
2016-12-23T04:25:31.393Z,21.11
2016-12-23T04:25:56.988Z,21.05
2016-12-23T04:26:22.599Z,21.06
2016-12-23T04:26:48.161Z,21.08
2016-12-23T04:27:13.729Z,21.08
2016-12-23T04:27:39.298Z,21.09
2016-12-23T04:28:04.959Z,21.08
2016-12-23T04:28:30.515Z,21.14
2016-12-23T04:28:56.079Z,21.09
2016-12-23T04:29:21.763Z,21.14
2016-12-23T04:29:47.341Z,21.14
2016-12-23T04:30:13.017Z,21.11
2016-12-23T04:30:38.568Z,21.13
2016-12-23T04:31:04.141Z,21.05
2016-12-23T04:31:29.808Z,21.06
2016-12-23T04:31:55.474Z,21.06
2016-12-23T04:32:21.024Z,21.14
2016-12-23T04:32:46.584Z,21.08
2016-12-23T04:33:12.234Z,21.08
2016-12-23T04:33:37.869Z,21.13
2016-12-23T04:34:03.429Z,21.14
2016-12-23T04:34:28.991Z,21.17
2016-12-23T04:34:54.640Z,21.16
2016-12-23T04:35:20.209Z,21.19
2016-12-23T04:35:45.786Z,21.13
2016-12-23T04:36:11.389Z,21.14
2016-12-23T04:36:37.023Z,21.16
2016-12-23T04:37:02.590Z,21.14
2016-12-23T04:37:28.231Z,21.17
2016-12-23T04:38:22.706Z,21.24
2016-12-23T04:38:48.287Z,21.19
2016-12-23T04:39:13.841Z,21.21
2016-12-23T04:39:39.413Z,21.21
2016-12-23T04:40:04.988Z,21.17
2016-12-23T04:40:30.565Z,21.13
2016-12-23T04:40:56.129Z,21.11
2016-12-23T04:41:21.804Z,21.14
2016-12-23T04:41:47.374Z,21.23
2016-12-23T04:42:12.927Z,21.24
2016-12-23T04:42:38.487Z,21.11
2016-12-23T04:43:04.048Z,21.17
2016-12-23T04:43:29.623Z,21.21
2016-12-23T04:43:55.196Z,21.2
2016-12-23T04:44:20.820Z,21.19
2016-12-23T04:44:46.366Z,21.24
2016-12-23T04:45:11.925Z,21.19
2016-12-23T04:45:37.575Z,21.26
2016-12-23T04:46:03.145Z,21.26
2016-12-23T04:47:06.834Z,21.21
2016-12-23T04:47:32.439Z,21.21
2016-12-23T04:47:58.000Z,21.21
2016-12-23T04:48:23.541Z,21.24
2016-12-23T04:48:49.256Z,21.26
2016-12-23T04:49:14.819Z,21.26
2016-12-23T04:49:40.386Z,21.24
2016-12-23T04:50:06.034Z,21.24
2016-12-23T04:50:31.581Z,21.29
2016-12-23T04:50:57.178Z,21.24
2016-12-23T04:51:22.748Z,21.29
2016-12-23T04:52:26.532Z,21.26
2016-12-23T04:52:52.092Z,21.26
2016-12-23T04:53:17.661Z,21.21
2016-12-23T04:53:43.224Z,21.23
2016-12-23T04:54:08.768Z,21.21
2016-12-23T04:54:34.320Z,21.24
2016-12-23T04:54:59.876Z,21.24
2016-12-23T04:55:25.435Z,21.29
2016-12-23T04:55:51.051Z,21.34
2016-12-23T04:56:16.672Z,21.21
2016-12-23T04:56:42.247Z,21.26
2016-12-23T04:57:07.888Z,21.29
2016-12-23T04:57:33.524Z,21.3
2016-12-23T04:57:59.076Z,21.27
2016-12-23T04:58:24.628Z,21.29
2016-12-23T04:58:50.170Z,21.34
2016-12-23T04:59:15.821Z,21.3
2016-12-23T04:59:41.387Z,21.27
2016-12-23T05:00:06.936Z,21.24
2016-12-23T05:00:32.596Z,21.29
2016-12-23T05:00:58.188Z,21.3
2016-12-23T05:01:23.753Z,21.32
2016-12-23T05:01:49.288Z,21.32
2016-12-23T05:02:14.846Z,21.26
2016-12-23T05:02:40.501Z,21.32
2016-12-23T05:03:06.045Z,21.3
2016-12-23T05:03:31.617Z,21.35
2016-12-23T05:03:57.192Z,21.35
2016-12-23T05:04:22.818Z,21.34
2016-12-23T05:04:48.401Z,21.29
2016-12-23T05:05:14.042Z,21.3
2016-12-23T05:05:39.663Z,21.34
2016-12-23T05:06:05.229Z,21.29
2016-12-23T05:06:30.818Z,21.29
2016-12-23T05:06:56.452Z,21.24
2016-12-23T05:07:22.010Z,21.26
2016-12-23T05:07:47.573Z,21.27
2016-12-23T05:08:13.157Z,21.29
2016-12-23T05:08:38.757Z,21.34
2016-12-23T05:09:04.328Z,21.35
2016-12-23T05:09:30.075Z,21.3
2016-12-23T05:09:55.613Z,21.27
2016-12-23T05:10:21.189Z,21.27
2016-12-23T05:10:46.806Z,21.32
2016-12-23T05:11:12.482Z,21.29
2016-12-23T05:11:38.047Z,21.32
2016-12-23T05:12:03.619Z,21.3
2016-12-23T05:12:29.270Z,21.32
2016-12-23T05:12:54.833Z,21.27
2016-12-23T05:13:20.407Z,21.34
2016-12-23T05:13:45.990Z,21.32
2016-12-23T05:14:11.557Z,21.29
2016-12-23T05:14:37.112Z,21.29
2016-12-23T05:15:02.673Z,21.32
2016-12-23T05:15:51.039Z,21.29
2016-12-23T05:16:16.698Z,21.32
2016-12-23T05:16:42.258Z,21.32
2016-12-23T05:17:07.867Z,21.32
2016-12-23T05:17:33.418Z,21.29
2016-12-23T05:17:58.970Z,21.29
2016-12-23T05:18:24.590Z,21.34
2016-12-23T05:18:50.160Z,21.34
2016-12-23T05:19:15.727Z,21.36
2016-12-23T05:19:41.306Z,21.29
2016-12-23T05:20:06.902Z,21.23
2016-12-23T05:20:32.469Z,21.29
2016-12-23T05:20:58.148Z,21.32
2016-12-23T05:21:23.713Z,21.32
2016-12-23T05:21:49.282Z,21.32
2016-12-23T05:22:14.847Z,21.3
2016-12-23T05:22:40.428Z,21.3
2016-12-23T05:23:06.014Z,21.3
2016-12-23T05:23:31.576Z,21.3
2016-12-23T05:23:57.158Z,21.34
2016-12-23T05:24:22.724Z,21.3
2016-12-23T05:24:48.295Z,21.34
2016-12-23T05:25:13.932Z,21.35
2016-12-23T05:25:39.498Z,21.34
2016-12-23T05:26:05.116Z,21.35
2016-12-23T05:26:30.718Z,21.36
2016-12-23T05:26:56.327Z,21.34
2016-12-23T05:27:21.950Z,21.35
2016-12-23T05:27:47.545Z,21.3
2016-12-23T05:28:13.121Z,21.34
2016-12-23T05:28:38.682Z,21.3
2016-12-23T05:29:04.294Z,21.35
2016-12-23T05:29:29.846Z,21.36
2016-12-23T05:29:55.401Z,21.39
2016-12-23T05:30:20.993Z,21.3
2016-12-23T05:30:46.713Z,21.39
2016-12-23T05:31:12.274Z,21.34
2016-12-23T05:31:37.835Z,21.36
2016-12-23T05:32:03.480Z,21.38
2016-12-23T05:32:29.053Z,21.35
2016-12-23T05:32:54.614Z,21.36
2016-12-23T05:33:20.191Z,21.32
2016-12-23T05:33:45.816Z,21.27
2016-12-23T05:34:11.388Z,21.32
2016-12-23T05:34:36.960Z,21.32
2016-12-23T05:35:02.509Z,21.36
2016-12-23T05:35:28.078Z,21.36
2016-12-23T05:35:53.654Z,21.32
2016-12-23T05:36:19.247Z,21.35
2016-12-23T05:36:44.816Z,21.36
2016-12-23T05:37:10.511Z,21.38
2016-12-23T05:37:36.073Z,21.41
2016-12-23T05:38:01.631Z,21.35
2016-12-23T05:38:27.201Z,21.39
2016-12-23T05:38:52.774Z,21.32
2016-12-23T05:39:18.348Z,21.36
2016-12-23T05:39:43.918Z,21.35